N7265Y KISM-KLAL
Flight info
| Callsign | N7265Y |
|---|---|
| Flight time | 0h 23m |
| Altitude | VFR/025 |
| Route | |
| Aircraft | C172/L-DOV/C |
Departure
| Time | 2026-04-22 00:37 |
|---|---|
| Airport | Kissimmee Gateway Airport (KISM) |
Arrival
| Time | 2026-04-22 01:00 |
|---|---|
| Airport | Lakeland Linder International Airport (KLAL) |
| Time | Latitude | Longitude | Altitude | Speed | Heading |
|---|---|---|---|---|---|
| 2026-04-22 00:37 | 28.28071 | -81.43977 | 567 ft | 103 kts | 235° |
| 2026-04-22 00:37 | 28.27790 | -81.44766 | 725 ft | 111 kts | 255° |
| 2026-04-22 00:38 | 28.27586 | -81.45631 | 877 ft | 114 kts | 248° |
| 2026-04-22 00:38 | 28.27154 | -81.46383 | 1041 ft | 114 kts | 233° |
| 2026-04-22 00:38 | 28.26763 | -81.47129 | 1253 ft | 114 kts | 237° |
| 2026-04-22 00:38 | 28.26369 | -81.47939 | 1448 ft | 113 kts | 236° |
| 2026-04-22 00:39 | 28.25973 | -81.48731 | 1603 ft | 119 kts | 232° |
| 2026-04-22 00:39 | 28.25531 | -81.49558 | 1747 ft | 120 kts | 230° |
| 2026-04-22 00:39 | 28.25094 | -81.50365 | 1907 ft | 123 kts | 238° |
| 2026-04-22 00:39 | 28.24693 | -81.51249 | 2049 ft | 123 kts | 236° |
| 2026-04-22 00:40 | 28.24235 | -81.52136 | 1966 ft | 140 kts | 233° |
| 2026-04-22 00:40 | 28.23757 | -81.53046 | 1838 ft | 127 kts | 234° |
| 2026-04-22 00:40 | 28.23296 | -81.53885 | 1690 ft | 124 kts | 232° |
| 2026-04-22 00:40 | 28.22856 | -81.54726 | 1588 ft | 122 kts | 234° |
| 2026-04-22 00:41 | 28.22440 | -81.55526 | 1547 ft | 116 kts | 232° |
| 2026-04-22 00:41 | 28.22090 | -81.56330 | 1569 ft | 109 kts | 240° |
| 2026-04-22 00:41 | 28.21775 | -81.57082 | 1589 ft | 105 kts | 236° |
| 2026-04-22 00:41 | 28.21450 | -81.57841 | 1570 ft | 107 kts | 237° |
| 2026-04-22 00:42 | 28.21086 | -81.58569 | 1550 ft | 104 kts | 224° |
| 2026-04-22 00:42 | 28.20652 | -81.59232 | 1543 ft | 102 kts | 222° |
| 2026-04-22 00:42 | 28.20239 | -81.59888 | 1567 ft | 104 kts | 229° |
| 2026-04-22 00:42 | 28.19843 | -81.60537 | 1644 ft | 101 kts | 225° |
| 2026-04-22 00:43 | 28.19452 | -81.61214 | 1674 ft | 109 kts | 245° |
| 2026-04-22 00:43 | 28.19199 | -81.62042 | 1682 ft | 111 kts | 235° |
| 2026-04-22 00:43 | 28.18751 | -81.62750 | 1703 ft | 111 kts | 225° |
| 2026-04-22 00:43 | 28.18357 | -81.63481 | 1780 ft | 108 kts | 232° |
| 2026-04-22 00:44 | 28.18025 | -81.64224 | 1876 ft | 106 kts | 238° |
| 2026-04-22 00:44 | 28.17683 | -81.64991 | 1903 ft | 108 kts | 236° |
| 2026-04-22 00:44 | 28.17360 | -81.65742 | 1988 ft | 104 kts | 234° |
| 2026-04-22 00:44 | 28.16944 | -81.66384 | 2029 ft | 99 kts | 205° |
| 2026-04-22 00:45 | 28.16391 | -81.66894 | 2026 ft | 103 kts | 204° |
| 2026-04-22 00:45 | 28.15935 | -81.67543 | 2050 ft | 105 kts | 230° |
| 2026-04-22 00:45 | 28.15545 | -81.68243 | 2049 ft | 106 kts | 232° |
| 2026-04-22 00:45 | 28.15534 | -81.69075 | 2032 ft | 108 kts | 290° |
| 2026-04-22 00:46 | 28.15770 | -81.69865 | 2059 ft | 104 kts | 292° |
| 2026-04-22 00:46 | 28.15993 | -81.70644 | 2091 ft | 102 kts | 291° |
| 2026-04-22 00:46 | 28.16080 | -81.71446 | 2132 ft | 101 kts | 274° |
| 2026-04-22 00:46 | 28.16111 | -81.72248 | 2129 ft | 107 kts | 273° |
| 2026-04-22 00:47 | 28.16152 | -81.73131 | 2108 ft | 115 kts | 274° |
| 2026-04-22 00:47 | 28.16203 | -81.74029 | 2138 ft | 112 kts | 280° |
| 2026-04-22 00:47 | 28.16386 | -81.74861 | 2177 ft | 106 kts | 276° |
| 2026-04-22 00:47 | 28.16392 | -81.75689 | 2201 ft | 105 kts | 266° |
| 2026-04-22 00:48 | 28.16399 | -81.76498 | 2239 ft | 103 kts | 277° |
| 2026-04-22 00:48 | 28.16507 | -81.77313 | 2233 ft | 106 kts | 277° |
| 2026-04-22 00:48 | 28.16604 | -81.78148 | 2230 ft | 106 kts | 288° |
| 2026-04-22 00:48 | 28.16784 | -81.78968 | 2171 ft | 116 kts | 284° |
| 2026-04-22 00:49 | 28.16625 | -81.79849 | 2049 ft | 116 kts | 219° |
| 2026-04-22 00:49 | 28.16014 | -81.80443 | 1957 ft | 114 kts | 214° |
| 2026-04-22 00:49 | 28.15482 | -81.81016 | 2023 ft | 102 kts | 211° |
| 2026-04-22 00:49 | 28.14929 | -81.81610 | 1846 ft | 118 kts | 205° |
| 2026-04-22 00:50 | 28.14477 | -81.82486 | 1710 ft | 140 kts | 255° |
| 2026-04-22 00:50 | 28.14335 | -81.83518 | 1834 ft | 130 kts | 256° |
| 2026-04-22 00:50 | 28.13928 | -81.84463 | 1690 ft | 132 kts | 214° |
| 2026-04-22 00:50 | 28.13181 | -81.84981 | 1551 ft | 125 kts | 214° |
| 2026-04-22 00:51 | 28.12835 | -81.85829 | 1563 ft | 110 kts | 247° |
| 2026-04-22 00:51 | 28.12493 | -81.86538 | 1479 ft | 98 kts | 209° |
| 2026-04-22 00:51 | 28.11951 | -81.87012 | 1394 ft | 98 kts | 209° |
| 2026-04-22 00:51 | 28.11564 | -81.87676 | 1333 ft | 103 kts | 242° |
| 2026-04-22 00:52 | 28.11348 | -81.88422 | 1295 ft | 99 kts | 230° |
| 2026-04-22 00:52 | 28.10903 | -81.89024 | 1232 ft | 95 kts | 218° |
| 2026-04-22 00:52 | 28.10505 | -81.89669 | 1202 ft | 104 kts | 228° |
| 2026-04-22 00:52 | 28.10062 | -81.90361 | 1126 ft | 111 kts | 223° |
| 2026-04-22 00:53 | 28.09546 | -81.91004 | 1108 ft | 106 kts | 217° |
| 2026-04-22 00:53 | 28.09264 | -81.91806 | 927 ft | 118 kts | 272° |
| 2026-04-22 00:53 | 28.09343 | -81.92639 | 913 ft | 96 kts | 269° |
| 2026-04-22 00:53 | 28.09128 | -81.93314 | 928 ft | 91 kts | 239° |
| 2026-04-22 00:54 | 28.08920 | -81.94069 | 1014 ft | 110 kts | 253° |
| 2026-04-22 00:54 | 28.08767 | -81.94961 | 1145 ft | 119 kts | 256° |
| 2026-04-22 00:54 | 28.08624 | -81.95950 | 1240 ft | 126 kts | 257° |
| 2026-04-22 00:54 | 28.08387 | -81.96929 | 1323 ft | 130 kts | 244° |
| 2026-04-22 00:55 | 28.07965 | -81.97810 | 1433 ft | 128 kts | 225° |
| 2026-04-22 00:55 | 28.07417 | -81.98611 | 1521 ft | 127 kts | 221° |
| 2026-04-22 00:55 | 28.06330 | -82.00234 | 1651 ft | 133 kts | 227° |
| 2026-04-22 00:56 | 28.05787 | -82.01127 | 1595 ft | 139 kts | 226° |
| 2026-04-22 00:56 | 28.05143 | -82.01991 | 1380 ft | 142 kts | 225° |
| 2026-04-22 00:56 | 28.04431 | -82.02631 | 1194 ft | 121 kts | 189° |
| 2026-04-22 00:56 | 28.03762 | -82.03262 | 1078 ft | 121 kts | 223° |
| 2026-04-22 00:57 | 28.03325 | -82.04018 | 1195 ft | 101 kts | 233° |
| 2026-04-22 00:57 | 28.02826 | -82.04227 | 1156 ft | 77 kts | 134° |
| 2026-04-22 00:57 | 28.02464 | -82.03761 | 1052 ft | 84 kts | 137° |
| 2026-04-22 00:57 | 28.01964 | -82.03378 | 946 ft | 83 kts | 133° |
| 2026-04-22 00:58 | 28.01524 | -82.03013 | 974 ft | 80 kts | 135° |
| 2026-04-22 00:58 | 28.01006 | -82.02715 | 896 ft | 88 kts | 149° |
| 2026-04-22 00:58 | 28.00436 | -82.03001 | 713 ft | 111 kts | 242° |
| 2026-04-22 00:58 | 28.00351 | -82.03800 | 613 ft | 92 kts | 272° |
| 2026-04-22 00:59 | 28.00311 | -82.04460 | 647 ft | 79 kts | 231° |
| 2026-04-22 00:59 | 27.99827 | -82.04730 | 656 ft | 79 kts | 173° |
| 2026-04-22 00:59 | 27.99295 | -82.04814 | 712 ft | 68 kts | 174° |
| 2026-04-22 00:59 | 27.99011 | -82.04617 | 551 ft | 54 kts | 106° |
| 2026-04-22 01:00 | 27.98943 | -82.04175 | 388 ft | 57 kts | 90° |
| 2026-04-22 01:00 | 27.98941 | -82.03751 | 294 ft | 55 kts | 94° |
| 2026-04-22 01:00 | 27.98929 | -82.03298 | 161 ft | 58 kts | 90° |
| 2026-04-22 01:00 | 27.98929 | -82.02890 | 144 ft | 44 kts | 88° |
| 2026-04-22 01:01 | 27.98930 | -82.02584 | 124 ft | 32 kts | 89° |
| 2026-04-22 01:01 | 27.98930 | -82.02329 | 125 ft | 32 kts | 89° |
| 2026-04-22 01:01 | 27.98933 | -82.02062 | 129 ft | 43 kts | 91° |
| 2026-04-22 01:01 | 27.98928 | -82.01660 | 132 ft | 55 kts | 90° |
| 2026-04-22 01:02 | 27.98932 | -82.01222 | 135 ft | 54 kts | 91° |
| 2026-04-22 01:02 | 27.98931 | -82.00880 | 135 ft | 26 kts | 86° |
| 2026-04-22 01:02 | 27.98950 | -82.00771 | 135 ft | 10 kts | 25° |
| 2026-04-22 01:02 | 27.99025 | -82.00767 | 135 ft | 0 kts | 353° |
| 2026-04-22 01:04 | 27.99026 | -82.00767 | 135 ft | 0 kts | 12° |
| 2026-04-22 01:05 | 27.99026 | -82.00762 | 135 ft | 0 kts | 105° |
| 2026-04-22 01:05 | 27.99016 | -82.00762 | 135 ft | 7 kts | 215° |
| 2026-04-22 01:05 | 27.98853 | -82.00761 | 135 ft | 29 kts | 172° |
| 2026-04-22 01:05 | 27.98736 | -82.00771 | 135 ft | 13 kts | 270° |
| 2026-04-22 01:06 | 27.98733 | -82.00919 | 134 ft | 24 kts | 272° |
| 2026-04-22 01:06 | 27.98735 | -82.01114 | 133 ft | 17 kts | 269° |
| 2026-04-22 01:06 | 27.98733 | -82.01231 | 132 ft | 12 kts | 271° |
| 2026-04-22 01:06 | 27.98720 | -82.01325 | 132 ft | 18 kts | 244° |
| 2026-04-22 01:07 | 27.98681 | -82.01369 | 132 ft | 0 kts | 205° |